Time;durP1;ratioP1;P1;durP2;ratioP2;P2;SDS_P1;SDS_P2;PMS_P1;PMS_P2;Temp;Humidity;BMP_temperature;BMP_pressure;BME280_temperature;BME280_humidity;BME280_pressure;Samples;Min_cycle;Max_cycle;Signal;HPM_P1;HPM_P2
2021/05/22 00:00:00;;;;;;;18.70;3.67;;;;;;;8.96;69.75;99886.50;5107586;28;20023;-73
2021/05/22 00:02:26;;;;;;;19.35;3.80;;;;;;;8.94;70.21;99885.63;5103461;28;20491;-71
2021/05/22 00:04:51;;;;;;;21.30;4.00;;;;;;;8.94;70.25;99890.00;5105918;28;20131;-73
2021/05/22 00:07:17;;;;;;;20.25;3.70;;;;;;;8.89;70.42;99877.72;5106057;28;20118;-66
2021/05/22 00:09:44;;;;;;;20.25;3.58;;;;;;;9.01;69.16;99878.56;5104575;28;20024;-67
2021/05/22 00:12:10;;;;;;;21.05;4.00;;;;;;;9.03;68.83;99877.66;5106957;28;20022;-64
2021/05/22 00:14:35;;;;;;;17.45;3.35;;;;;;;8.98;69.23;99881.22;5103892;28;20459;-64
2021/05/22 00:17:00;;;;;;;18.92;3.28;;;;;;;8.98;69.20;99876.81;5106676;28;20042;-64
2021/05/22 00:19:26;;;;;;;19.38;3.33;;;;;;;8.94;68.33;99869.81;5104278;28;20028;-69
2021/05/22 00:21:51;;;;;;;22.17;3.28;;;;;;;8.95;69.08;99871.53;5105905;28;20028;-64
2021/05/22 00:24:17;;;;;;;21.77;3.50;;;;;;;9.07;67.66;99860.06;5105520;28;20020;-65
2021/05/22 00:26:42;;;;;;;19.15;3.20;;;;;;;8.97;68.20;99859.25;5104111;28;20048;-64
2021/05/22 00:29:08;;;;;;;19.63;3.30;;;;;;;8.90;68.98;99858.41;5106682;28;20073;-64
2021/05/22 00:31:34;;;;;;;21.85;3.90;;;;;;;8.89;68.31;99858.41;5103334;28;20032;-64
2021/05/22 00:34:00;;;;;;;19.33;3.40;;;;;;;8.87;68.92;99860.19;5106797;28;20382;-64
2021/05/22 00:36:25;;;;;;;17.33;3.08;;;;;;;8.88;68.50;99864.53;5104228;28;20110;-64
2021/05/22 00:38:51;;;;;;;19.10;3.22;;;;;;;8.86;68.47;99850.50;5105080;28;20035;-66
2021/05/22 00:41:16;;;;;;;17.65;3.20;;;;;;;8.90;68.00;99844.34;5105100;28;20106;-63
2021/05/22 00:43:42;;;;;;;18.10;3.30;;;;;;;8.93;68.23;99870.69;5104189;28;20073;-67
2021/05/22 00:46:08;;;;;;;19.13;3.35;;;;;;;9.00;67.96;99863.63;5106694;28;20452;-64
2021/05/22 00:48:33;;;;;;;18.05;3.20;;;;;;;9.05;68.22;99846.03;5102931;28;20028;-64
2021/05/22 00:50:59;;;;;;;20.38;3.50;;;;;;;9.08;67.88;99836.31;5106079;28;20035;-65
2021/05/22 00:53:24;;;;;;;16.95;3.58;;;;;;;9.07;68.31;99838.97;5102465;28;20044;-64
2021/05/22 00:55:50;;;;;;;21.27;3.80;;;;;;;9.10;68.07;99840.72;5104720;28;20028;-65
2021/05/22 00:58:15;;;;;;;18.40;3.30;;;;;;;9.14;68.04;99827.50;5105330;28;20024;-64
2021/05/22 01:00:52;;;;;;;20.80;3.65;;;;;;;9.14;68.87;99829.28;5103373;28;20393;-67
2021/05/22 01:03:20;;;;;;;19.63;3.70;;;;;;;9.11;68.44;99835.44;5104648;28;20466;-64
2021/05/22 01:05:46;;;;;;;19.20;3.65;;;;;;;9.13;68.55;99838.97;5102972;28;20052;-64
2021/05/22 01:08:23;;;;;;;19.73;3.50;;;;;;;9.05;69.15;99831.06;5105469;28;20024;-64
2021/05/22 01:11:31;;;;;;;18.52;3.50;;;;;;;9.18;68.45;99844.19;5103807;28;20028;-65
2021/05/22 01:14:09;;;;;;;17.42;3.17;;;;;;;9.15;68.49;99836.31;4983854;28;20180;-65
2021/05/22 01:16:36;;;;;;;17.83;3.17;;;;;;;9.18;68.33;99831.00;4981026;28;20031;-64
2021/05/22 01:19:04;;;;;;;19.05;3.55;;;;;;;9.13;68.71;99843.34;4983806;28;20046;-63
2021/05/22 01:21:30;;;;;;;15.45;3.42;;;;;;;9.24;68.76;99833.59;4981400;28;20089;-63
2021/05/22 01:24:01;;;;;;;19.95;3.42;;;;;;;9.24;68.24;99833.59;4983259;28;20057;-63
2021/05/22 01:26:27;;;;;;;18.45;3.25;;;;;;;9.30;68.35;99830.94;4981566;28;20429;-63
2021/05/22 01:28:57;;;;;;;17.75;3.28;;;;;;;9.24;69.07;99825.69;4982621;28;20022;-63
2021/05/22 01:31:22;;;;;;;17.27;3.10;;;;;;;9.29;68.14;99845.03;4982273;28;20061;-64
2021/05/22 01:33:47;;;;;;;15.60;3.33;;;;;;;9.24;68.88;99829.19;4981972;28;20466;-63
2021/05/22 01:36:13;;;;;;;19.23;3.47;;;;;;;9.16;69.54;99832.78;4983278;28;20118;-64
2021/05/22 01:38:38;;;;;;;16.88;3.03;;;;;;;9.13;69.63;99823.16;4980947;28;20066;-63
2021/05/22 01:41:03;;;;;;;19.88;3.25;;;;;;;9.11;69.56;99818.75;4984008;28;20163;-64
2021/05/22 01:43:29;;;;;;;17.95;3.33;;;;;;;9.15;69.68;99808.19;4981182;28;20066;-63
2021/05/22 01:45:55;;;;;;;16.42;2.97;;;;;;;9.17;69.08;99808.16;4982872;28;20054;-64
2021/05/22 01:48:26;;;;;;;15.50;3.05;;;;;;;9.25;68.35;99841.50;4982134;28;20026;-64
2021/05/22 01:51:01;;;;;;;15.18;3.13;;;;;;;9.25;68.63;99816.91;5044373;28;20398;-63
2021/05/22 01:53:28;;;;;;;14.18;2.80;;;;;;;9.30;68.31;99820.38;5102787;28;20027;-64
2021/05/22 01:55:55;;;;;;;14.73;3.10;;;;;;;9.31;67.86;99816.00;5104122;28;20031;-64
2021/05/22 01:58:22;;;;;;;15.98;2.95;;;;;;;9.35;68.29;99815.06;5103493;28;20424;-63
2021/05/22 02:00:48;;;;;;;16.40;3.00;;;;;;;9.45;67.49;99815.88;5103100;28;20546;-71
2021/05/22 02:03:36;;;;;;;16.42;3.30;;;;;;;9.39;67.82;99809.78;5104212;28;20115;-74
2021/05/22 02:06:13;;;;;;;16.52;3.00;;;;;;;9.39;68.08;99817.69;5105017;28;20035;-67
2021/05/22 02:08:43;;;;;;;17.05;3.10;;;;;;;9.39;68.26;99830.00;5098161;28;20024;-74
2021/05/22 02:11:09;;;;;;;17.05;3.25;;;;;;;9.37;68.51;99822.09;5104783;28;20074;-74
2021/05/22 02:13:38;;;;;;;14.88;2.90;;;;;;;9.45;67.65;99829.06;5101903;28;20044;-68
2021/05/22 02:16:06;;;;;;;15.95;3.10;;;;;;;9.43;67.60;99832.59;5104841;28;20015;-67
2021/05/22 02:18:34;;;;;;;18.17;2.90;;;;;;;9.49;67.55;99807.06;5101373;28;20044;-68
2021/05/22 02:21:02;;;;;;;17.08;2.92;;;;;;;9.47;67.93;99824.69;5104418;28;20016;-71
2021/05/22 02:23:29;;;;;;;17.13;3.00;;;;;;;9.52;67.36;99817.59;5102237;28;20024;-72
2021/05/22 02:25:56;;;;;;;19.05;3.00;;;;;;;9.48;68.22;99810.59;5103704;28;20107;-66
2021/05/22 02:28:23;;;;;;;19.00;3.13;;;;;;;9.50;68.07;99811.47;5103086;28;20050;-67
2021/05/22 02:30:50;;;;;;;16.88;3.17;;;;;;;9.45;68.12;99813.25;5102796;28;20031;-64
2021/05/22 02:33:17;;;;;;;15.50;2.75;;;;;;;9.43;67.94;99822.03;5103766;28;20023;-71
2021/05/22 02:35:46;;;;;;;19.17;3.35;;;;;;;9.40;68.72;99816.78;5102083;28;20382;-68
2021/05/22 02:38:22;;;;;;;17.25;3.35;;;;;;;9.47;68.44;99811.50;5104279;28;20494;-74
2021/05/22 02:40:52;;;;;;;17.08;3.45;;;;;;;9.50;68.49;99803.56;5102356;28;20031;-70
2021/05/22 02:43:18;;;;;;;19.02;3.40;;;;;;;9.49;67.70;99788.59;5103141;28;20153;-72
2021/05/22 02:45:45;;;;;;;14.75;3.20;;;;;;;9.46;67.72;99789.50;5102070;28;20020;-69
2021/05/22 02:48:15;;;;;;;18.08;3.38;;;;;;;9.50;68.39;99800.91;5104079;28;20533;-68
2021/05/22 02:50:44;;;;;;;18.88;3.22;;;;;;;9.43;68.35;99800.94;5101255;28;20146;-66
2021/05/22 02:53:11;;;;;;;18.80;3.40;;;;;;;9.40;69.00;99803.59;5104786;28;20026;-71
2021/05/22 02:55:37;;;;;;;17.45;3.22;;;;;;;9.41;69.39;99800.09;5101154;28;20028;-70
2021/05/22 02:58:05;;;;;;;15.35;3.20;;;;;;;9.46;68.74;99813.22;5104594;28;20034;-72
2021/05/22 03:00:32;;;;;;;17.10;3.30;;;;;;;9.48;68.67;99807.94;5101793;28;20028;-66
2021/05/22 03:02:58;;;;;;;17.15;3.25;;;;;;;9.46;69.06;99800.03;5103945;28;20034;-71
2021/05/22 03:05:24;;;;;;;20.05;3.58;;;;;;;9.36;70.25;99798.34;5102163;28;20028;-72
2021/05/22 03:07:50;;;;;;;17.85;3.55;;;;;;;9.42;69.75;99801.84;5102608;28;20035;-69
2021/05/22 03:10:16;;;;;;;18.25;3.58;;;;;;;9.43;69.90;99800.94;5103236;28;20024;-72
2021/05/22 03:12:41;;;;;;;18.40;3.47;;;;;;;9.45;69.88;99786.88;5101033;28;20548;-72
2021/05/22 03:15:08;;;;;;;19.42;3.42;;;;;;;9.40;70.56;99790.41;5104493;28;20023;-72
2021/05/22 03:17:36;;;;;;;19.85;3.80;;;;;;;9.47;70.14;99782.47;5096475;28;20040;-72
2021/05/22 03:20:03;;;;;;;15.20;3.35;;;;;;;9.42;70.95;99782.47;5103599;28;20479;-69
2021/05/22 03:22:28;;;;;;;17.05;3.38;;;;;;;9.31;71.87;99779.94;5101449;28;20043;-70
2021/05/22 03:24:54;;;;;;;17.95;3.40;;;;;;;9.35;72.00;99764.94;5102902;28;20020;-72
2021/05/22 03:27:19;;;;;;;13.43;3.33;;;;;;;9.32;72.02;99778.16;5102538;28;20024;-63
2021/05/22 03:29:45;;;;;;;20.27;3.88;;;;;;;9.26;73.15;99776.44;5104519;28;20035;-63
2021/05/22 03:32:10;;;;;;;18.08;3.72;;;;;;;9.22;73.84;99785.28;5107725;28;20046;-63
2021/05/22 03:34:35;;;;;;;19.92;3.67;;;;;;;9.17;73.61;99772.13;5104370;28;20024;-63
2021/05/22 03:37:01;;;;;;;19.20;3.95;;;;;;;9.20;73.57;99780.03;5107974;28;20028;-63
2021/05/22 03:39:26;;;;;;;17.58;3.42;;;;;;;9.11;74.51;99766.88;5105343;28;20458;-63
2021/05/22 03:41:51;;;;;;;19.20;3.63;;;;;;;9.19;74.04;99766.84;5105921;28;20097;-63
2021/05/22 03:44:17;;;;;;;18.17;3.60;;;;;;;9.15;74.06;99767.75;5106956;28;20084;-63
2021/05/22 03:46:42;;;;;;;17.60;3.60;;;;;;;9.14;73.93;99784.47;5104801;28;20024;-63
2021/05/22 03:49:08;;;;;;;19.80;3.38;;;;;;;9.20;73.75;99777.41;5106307;28;20104;-63
2021/05/22 03:51:33;;;;;;;18.77;3.72;;;;;;;9.31;72.80;99768.53;5104343;28;20520;-63
2021/05/22 03:53:58;;;;;;;21.27;3.50;;;;;;;9.30;73.43;99761.50;5107015;28;20027;-63
2021/05/22 03:56:24;;;;;;;18.98;3.67;;;;;;;9.27;73.41;99774.69;5105527;28;20099;-63
2021/05/22 03:58:50;;;;;;;19.13;3.92;;;;;;;9.21;75.27;99773.84;5105729;28;20024;-63
2021/05/22 04:01:19;;;;;;;19.70;3.75;;;;;;;9.15;74.60;99779.16;5106713;28;20069;-63
2021/05/22 04:03:44;;;;;;;19.50;3.53;;;;;;;9.06;75.91;99774.84;5104665;28;20443;-63
2021/05/22 04:06:09;;;;;;;20.25;4.20;;;;;;;9.18;74.12;99775.66;5106093;28;20048;-63
2021/05/22 04:08:35;;;;;;;19.17;3.40;;;;;;;9.26;74.03;99773.81;5103762;28;20056;-63
2021/05/22 04:11:00;;;;;;;19.60;3.78;;;;;;;9.29;74.08;99781.72;5106835;28;20466;-63
2021/05/22 04:13:26;;;;;;;17.27;3.53;;;;;;;9.32;73.82;99776.44;5104709;28;20027;-63
2021/05/22 04:15:51;;;;;;;19.92;3.88;;;;;;;9.23;75.69;99756.28;5105392;28;20042;-63
2021/05/22 04:18:17;;;;;;;21.25;4.18;;;;;;;9.20;74.70;99772.13;5106031;28;20044;-63
2021/05/22 04:20:42;;;;;;;22.55;4.10;;;;;;;9.19;75.38;99770.34;5103967;28;20046;-63
2021/05/22 04:23:08;;;;;;;20.50;3.83;;;;;;;9.15;76.06;99773.91;5107171;28;20386;-63
2021/05/22 04:25:33;;;;;;;19.67;3.80;;;;;;;8.98;78.07;99776.63;5104111;28;20020;-63
2021/05/22 04:27:59;;;;;;;20.85;3.83;;;;;;;9.10;75.32;99769.53;5105902;28;20428;-63
2021/05/22 04:30:25;;;;;;;18.05;3.78;;;;;;;9.18;74.90;99775.66;5104652;28;20060;-63
2021/05/22 04:32:51;;;;;;;19.30;3.78;;;;;;;9.28;74.13;99781.75;5105074;28;20028;-63
2021/05/22 04:35:16;;;;;;;24.60;4.57;;;;;;;9.24;74.38;99768.53;5105821;28;20837;-63
2021/05/22 04:37:43;;;;;;;21.13;3.80;;;;;;;9.17;76.05;99781.78;5103701;28;20024;-64
2021/05/22 04:40:09;;;;;;;22.13;3.95;;;;;;;9.24;74.88;99787.00;5105425;28;20016;-64
2021/05/22 04:42:35;;;;;;;22.13;3.78;;;;;;;9.25;75.08;99777.34;5103053;28;20441;-64
2021/05/22 04:45:01;;;;;;;18.70;3.65;;;;;;;9.23;75.90;99780.00;5106357;28;20080;-64
2021/05/22 04:47:27;;;;;;;19.15;3.50;;;;;;;9.21;76.33;99778.25;5104295;28;20024;-64
2021/05/22 04:49:52;;;;;;;20.38;4.00;;;;;;;9.12;77.22;99778.34;5104842;28;20046;-69
2021/05/22 04:52:19;;;;;;;23.27;4.10;;;;;;;9.03;78.66;99782.75;5105505;28;20030;-65
2021/05/22 04:54:44;;;;;;;22.35;3.97;;;;;;;9.00;80.26;99784.53;5103766;28;20031;-65
2021/05/22 04:57:10;;;;;;;21.27;3.85;;;;;;;8.93;80.20;99785.44;5106492;28;20024;-68
2021/05/22 04:59:35;;;;;;;19.77;4.05;;;;;;;8.98;79.04;99781.91;5103049;28;20028;-66
2021/05/22 05:02:00;;;;;;;22.17;4.13;;;;;;;8.89;80.17;99797.78;5105685;28;20462;-64
2021/05/22 05:04:26;;;;;;;22.70;3.90;;;;;;;8.93;79.88;99781.06;5103815;28;20092;-63
2021/05/22 05:06:51;;;;;;;22.67;4.32;;;;;;;8.84;82.89;99789.91;5104524;28;20459;-64
2021/05/22 05:09:17;;;;;;;21.33;4.40;;;;;;;8.68;83.53;99789.09;5103988;28;20474;-65
2021/05/22 05:11:42;;;;;;;21.77;4.22;;;;;;;8.67;85.61;99803.16;5103106;28;20390;-63
2021/05/22 05:14:07;;;;;;;19.85;4.00;;;;;;;8.62;87.49;99793.50;5106130;28;20386;-64
2021/05/22 05:16:33;;;;;;;22.17;4.55;;;;;;;8.47;90.44;99797.09;5102729;28;20016;-71
2021/05/22 05:18:58;;;;;;;26.65;5.00;;;;;;;8.39;92.10;99791.84;5104736;28;20390;-65
2021/05/22 05:21:23;;;;;;;21.92;4.53;;;;;;;8.23;95.57;99791.00;5104084;28;20116;-71
2021/05/22 05:23:49;;;;;;;21.90;4.80;;;;;;;8.18;100.00;99805.91;5103721;28;20016;-71
2021/05/22 05:26:14;;;;;;;22.15;5.05;;;;;;;8.20;99.55;99802.41;5105424;28;20089;-67
2021/05/22 05:28:39;;;;;;;22.98;5.03;;;;;;;8.18;99.08;99803.28;5102209;28;20055;-69
2021/05/22 05:31:06;;;;;;;23.80;4.63;;;;;;;8.24;96.12;99811.16;5105357;28;20023;-63
2021/05/22 05:33:31;;;;;;;22.45;4.93;;;;;;;8.22;97.95;99801.53;5102746;28;20032;-63
2021/05/22 05:35:57;;;;;;;20.85;4.68;;;;;;;8.27;96.67;99813.81;5104215;28;20082;-63
2021/05/22 05:38:22;;;;;;;24.25;5.28;;;;;;;8.33;94.59;99808.53;5104070;28;20034;-63
2021/05/22 05:40:47;;;;;;;21.30;4.47;;;;;;;8.31;96.16;99826.06;5103253;28;20466;-63
2021/05/22 05:43:16;;;;;;;20.90;4.70;;;;;;;8.42;94.84;99812.88;5104980;28;20027;-63
2021/05/22 05:45:42;;;;;;;22.80;4.50;;;;;;;8.51;93.17;99812.00;5102043;28;20081;-63
2021/05/22 05:48:08;;;;;;;23.52;4.72;;;;;;;8.59;92.05;99810.22;5105772;28;20023;-63
2021/05/22 05:50:33;;;;;;;22.70;4.57;;;;;;;8.66;89.51;99816.34;5101991;28;20032;-63
2021/05/22 05:52:59;;;;;;;17.88;3.95;;;;;;;8.70;88.93;99818.06;5103933;28;20048;-63
2021/05/22 05:55:25;;;;;;;20.42;4.32;;;;;;;8.85;87.57;99806.59;5103478;28;20056;-63
2021/05/22 05:57:51;;;;;;;20.58;4.40;;;;;;;8.88;86.89;99827.66;5103137;28;20107;-63
2021/05/22 06:00:17;;;;;;;20.65;4.15;;;;;;;8.84;88.52;99829.44;5104060;28;20023;-63
2021/05/22 06:02:42;;;;;;;21.17;4.43;;;;;;;8.85;87.29;99830.31;5101797;28;20436;-63
2021/05/22 06:05:09;;;;;;;22.25;4.32;;;;;;;8.81;88.18;99833.84;5105265;28;20039;-63
2021/05/22 06:07:34;;;;;;;20.63;4.30;;;;;;;8.80;87.41;99827.69;5101683;28;20112;-63
2021/05/22 06:09:59;;;;;;;20.02;4.55;;;;;;;8.71;90.76;99828.59;5104263;28;20066;-63
2021/05/22 06:12:26;;;;;;;20.90;4.38;;;;;;;8.81;88.99;99832.09;5102902;28;20069;-63
2021/05/22 06:14:55;;;;;;;21.55;5.00;;;;;;;8.87;88.42;99821.50;5102839;28;20097;-63
2021/05/22 06:17:20;;;;;;;19.63;4.50;;;;;;;8.93;86.28;99836.41;5103513;28;20050;-63
2021/05/22 06:19:46;;;;;;;20.27;4.30;;;;;;;8.95;88.21;99846.97;5102024;28;20024;-63
2021/05/22 06:22:11;;;;;;;21.08;4.70;;;;;;;8.82;90.68;99854.03;5104822;28;20462;-63
2021/05/22 06:24:36;;;;;;;22.77;4.90;;;;;;;8.83;90.24;99842.63;5101232;28;20107;-63
2021/05/22 06:27:02;;;;;;;22.27;5.05;;;;;;;8.69;94.88;99843.56;5104135;28;20493;-63
2021/05/22 06:29:27;;;;;;;19.02;5.03;;;;;;;8.64;96.25;99847.97;5102444;28;20073;-63
2021/05/22 06:31:52;;;;;;;21.48;4.95;;;;;;;8.64;93.78;99855.88;5103001;28;20027;-63
2021/05/22 06:34:18;;;;;;;19.17;4.97;;;;;;;8.58;96.00;99848.00;5103559;28;20071;-64
2021/05/22 06:36:43;;;;;;;20.80;4.72;;;;;;;8.64;93.96;99860.28;5101635;28;20036;-64
2021/05/22 06:39:09;;;;;;;21.52;4.72;;;;;;;8.66;94.22;99858.50;5104859;28;20020;-63
2021/05/22 06:41:34;;;;;;;22.42;5.13;;;;;;;8.66;95.84;99853.22;5101256;28;20417;-64
2021/05/22 06:44:00;;;;;;;20.95;4.70;;;;;;;8.66;93.05;99866.41;5103934;28;20467;-64
2021/05/22 06:48:51;;;;;;;20.73;4.93;;;;;;;8.60;99.14;99862.03;5102538;28;20032;-70
2021/05/22 06:51:17;;;;;;;21.55;5.47;;;;;;;8.56;100.00;99897.16;5103937;28;20093;-67
2021/05/22 06:53:42;;;;;;;20.40;5.45;;;;;;;8.48;100.00;99870.84;5101079;28;20455;-71
2021/05/22 06:56:07;;;;;;;23.55;5.68;;;;;;;8.47;100.00;99873.47;5104393;28;20034;-66
2021/05/22 06:58:33;;;;;;;20.63;5.20;;;;;;;8.41;100.00;99884.00;5101754;28;20455;-68
2021/05/22 07:00:58;;;;;;;22.45;5.90;;;;;;;8.33;100.00;99881.34;5103344;28;20028;-73
2021/05/22 07:03:24;;;;;;;23.70;6.15;;;;;;;8.44;100.00;99881.34;5103212;28;20098;-71
2021/05/22 07:05:50;;;;;;;21.40;5.65;;;;;;;8.43;100.00;99876.97;5104777;28;20542;-72
2021/05/22 07:08:19;;;;;;;21.77;5.57;;;;;;;8.33;100.00;99879.63;5107697;28;20066;-73
2021/05/22 07:10:45;;;;;;;24.55;6.35;;;;;;;8.31;100.00;99889.25;5105662;28;20126;-73
2021/05/22 07:13:11;;;;;;;22.33;6.47;;;;;;;8.34;100.00;99889.28;5108813;28;20084;-72
2021/05/22 07:15:36;;;;;;;21.98;5.95;;;;;;;8.34;100.00;99894.56;5104807;28;20020;-65
2021/05/22 07:18:01;;;;;;;22.83;6.07;;;;;;;8.28;100.00;99884.00;5107487;28;20447;-64
2021/05/22 07:20:27;;;;;;;21.73;5.97;;;;;;;8.27;100.00;99887.53;5106266;28;20121;-64
2021/05/22 07:22:54;;;;;;;24.95;6.78;;;;;;;8.29;100.00;99900.69;5106061;28;20020;-64
2021/05/22 07:25:20;;;;;;;20.38;5.72;;;;;;;8.33;100.00;99908.59;5107277;28;20103;-65
2021/05/22 07:27:49;;;;;;;21.50;5.53;;;;;;;8.38;100.00;99906.81;5105032;28;20024;-65
2021/05/22 07:30:16;;;;;;;22.35;5.85;;;;;;;8.40;100.00;99903.31;5107793;28;20062;-64
2021/05/22 07:32:41;;;;;;;21.50;6.10;;;;;;;8.43;100.00;99903.28;5105096;28;20371;-65
2021/05/22 07:35:08;;;;;;;22.38;5.60;;;;;;;8.50;100.00;99899.81;5107778;28;20031;-64
2021/05/22 07:37:34;;;;;;;21.05;5.32;;;;;;;8.49;100.00;99913.84;5104686;28;20474;-65
2021/05/22 07:39:59;;;;;;;20.88;5.32;;;;;;;8.50;100.00;99907.72;5106932;28;20024;-65
2021/05/22 07:42:25;;;;;;;20.45;5.60;;;;;;;8.54;100.00;99920.00;5106165;28;20031;-64
2021/05/22 07:44:52;;;;;;;20.25;5.53;;;;;;;8.50;100.00;99905.06;5105595;28;20111;-66
2021/05/22 07:47:17;;;;;;;21.15;6.10;;;;;;;8.45;100.00;99943.72;5107064;28;20020;-65
2021/05/22 07:49:43;;;;;;;21.20;5.20;;;;;;;8.51;100.00;99920.88;5104069;28;20028;-67
2021/05/22 07:52:10;;;;;;;21.90;5.30;;;;;;;8.50;100.00;99923.50;5107897;28;20093;-65
2021/05/22 07:54:36;;;;;;;21.58;5.28;;;;;;;8.50;100.00;99926.16;5104460;28;20024;-68
2021/05/22 07:57:04;;;;;;;20.25;5.13;;;;;;;8.55;100.00;99927.03;5106667;28;20035;-71
2021/05/22 07:59:29;;;;;;;20.50;5.88;;;;;;;8.54;100.00;99943.72;5105389;28;20052;-68
2021/05/22 08:01:54;;;;;;;19.98;5.55;;;;;;;8.50;100.00;99960.38;5105764;28;20378;-73
2021/05/22 08:04:20;;;;;;;21.30;5.88;;;;;;;8.56;100.00;99931.41;5106337;28;20024;-69
2021/05/22 08:06:45;;;;;;;23.27;6.43;;;;;;;8.51;100.00;99943.72;5104260;28;20020;-70
2021/05/22 08:09:10;;;;;;;21.30;5.65;;;;;;;8.51;100.00;99939.31;5105737;28;20071;-68
2021/05/22 08:11:36;;;;;;;23.75;6.40;;;;;;;8.49;100.00;99956.88;5104076;28;20016;-65
2021/05/22 08:14:01;;;;;;;22.77;6.07;;;;;;;8.47;100.00;99952.50;5106093;28;20031;-65
2021/05/22 08:16:26;;;;;;;21.27;6.78;;;;;;;8.53;100.00;99947.22;5105049;28;20072;-64
2021/05/22 08:18:52;;;;;;;23.55;6.20;;;;;;;8.56;100.00;99947.19;5104840;28;20044;-65
2021/05/22 08:21:22;;;;;;;22.88;6.57;;;;;;;8.61;100.00;99942.81;5106271;28;20463;-63
2021/05/22 08:23:47;;;;;;;22.38;5.90;;;;;;;8.67;100.00;99955.97;5104306;28;20074;-63
2021/05/22 08:26:13;;;;;;;21.23;5.50;;;;;;;8.67;100.00;99957.75;5106835;28;20023;-65
2021/05/22 08:28:38;;;;;;;19.67;5.70;;;;;;;8.69;100.00;99948.06;5103573;28;20424;-65
2021/05/22 08:31:03;;;;;;;20.15;5.50;;;;;;;8.74;100.00;99962.13;5106584;28;20123;-65
2021/05/22 08:33:29;;;;;;;22.23;5.82;;;;;;;8.84;100.00;99955.94;5104839;28;20023;-64
2021/05/22 08:35:54;;;;;;;21.40;6.13;;;;;;;8.79;100.00;99951.56;5105058;28;20028;-64
2021/05/22 08:38:19;;;;;;;21.92;5.95;;;;;;;8.90;100.00;99957.69;5105888;28;20027;-64
2021/05/22 08:40:45;;;;;;;20.20;5.53;;;;;;;8.96;100.00;99962.06;5103647;28;20028;-64
2021/05/22 08:43:10;;;;;;;19.55;5.07;;;;;;;9.04;100.00;99971.72;5106773;28;20053;-64
2021/05/22 08:45:35;;;;;;;20.30;5.40;;;;;;;9.03;100.00;99969.06;5103440;28;20036;-64
2021/05/22 08:48:01;;;;;;;18.52;5.20;;;;;;;9.07;100.00;99969.06;5104379;28;20050;-64
2021/05/22 08:50:27;;;;;;;17.40;5.45;;;;;;;9.18;100.00;99976.91;5104666;28;20053;-65
2021/05/22 08:52:54;;;;;;;21.58;5.60;;;;;;;9.25;100.00;99980.41;5104519;28;20024;-64
2021/05/22 08:55:22;;;;;;;19.10;5.45;;;;;;;9.29;100.00;99986.53;5103964;28;20029;-64
2021/05/22 08:57:48;;;;;;;19.25;5.40;;;;;;;9.22;100.00;99986.56;5103960;28;20097;-64
2021/05/22 09:00:17;;;;;;;19.45;5.68;;;;;;;9.29;100.00;99982.16;5106332;28;20020;-64
2021/05/22 09:02:44;;;;;;;20.10;5.22;;;;;;;9.38;100.00;99976.84;5102810;28;20110;-64
2021/05/22 09:05:15;;;;;;;20.48;5.18;;;;;;;9.43;100.00;99985.59;5106454;28;20466;-64
2021/05/22 09:07:46;;;;;;;18.00;5.20;;;;;;;9.41;100.00;99979.47;5099249;28;20038;-64
2021/05/22 09:10:16;;;;;;;20.35;4.95;;;;;;;9.45;100.00;99990.00;5098906;28;20386;-64
2021/05/22 09:12:44;;;;;;;19.35;5.60;;;;;;;9.44;100.00;99994.41;5106453;28;20107;-64
2021/05/22 09:15:12;;;;;;;21.70;6.22;;;;;;;9.48;100.00;99989.97;5098927;28;20027;-64
2021/05/22 09:17:48;;;;;;;18.08;5.45;;;;;;;9.45;100.00;100003.19;5105588;28;20047;-64
2021/05/22 09:20:15;;;;;;;20.55;5.75;;;;;;;9.44;100.00;100007.59;5099409;28;20053;-64
2021/05/22 09:22:40;;;;;;;19.52;5.53;;;;;;;9.53;100.00;99983.78;5105914;28;20047;-64
2021/05/22 09:25:07;;;;;;;20.20;6.47;;;;;;;9.53;100.00;100015.47;5102589;28;20386;-64
2021/05/22 09:27:41;;;;;;;21.25;6.45;;;;;;;9.45;100.00;100008.47;5104036;28;20478;-64
2021/05/22 09:30:15;;;;;;;19.00;5.90;;;;;;;9.32;100.00;100010.25;5102386;28;20032;-64
2021/05/22 09:32:41;;;;;;;18.98;6.30;;;;;;;9.28;100.00;99995.34;5106010;28;20106;-64
2021/05/22 09:35:09;;;;;;;22.13;6.07;;;;;;;9.36;100.00;100015.56;5102278;28;20024;-64
2021/05/22 09:37:48;;;;;;;20.27;6.60;;;;;;;9.36;100.00;100012.00;5104914;28;20024;-71
2021/05/22 09:40:20;;;;;;;21.40;6.35;;;;;;;9.45;100.00;100032.19;5098605;28;20043;-71
2021/05/22 09:42:46;;;;;;;21.02;5.95;;;;;;;9.50;100.00;100027.78;5105236;28;20534;-69
2021/05/22 09:45:26;;;;;;;20.00;6.20;;;;;;;9.51;100.00;100038.34;5101787;28;20114;-69
2021/05/22 09:47:52;;;;;;;20.33;6.00;;;;;;;9.48;100.00;100040.09;5100902;28;20409;-64
2021/05/22 09:50:29;;;;;;;20.20;6.28;;;;;;;9.47;100.00;100041.00;5104345;28;20023;-64
2021/05/22 09:52:55;;;;;;;19.25;6.18;;;;;;;9.50;100.00;100038.34;5103577;28;20032;-64
2021/05/22 09:55:22;;;;;;;21.08;6.57;;;;;;;9.55;100.00;100037.44;5104079;28;20030;-64
2021/05/22 09:57:48;;;;;;;21.35;6.72;;;;;;;9.59;100.00;100038.31;5102105;28;20055;-64
2021/05/22 10:00:16;;;;;;;20.65;6.95;;;;;;;9.55;100.00;100041.84;5105090;28;20023;-64
2021/05/22 10:02:47;;;;;;;21.75;6.40;;;;;;;9.51;100.00;100051.53;5101512;28;20085;-64
2021/05/22 10:05:17;;;;;;;19.92;6.32;;;;;;;9.50;100.00;100043.63;5097855;28;20020;-64
2021/05/22 10:07:44;;;;;;;20.33;6.90;;;;;;;9.41;100.00;100055.97;5097814;28;20020;-63
2021/05/22 10:10:10;;;;;;;21.23;6.60;;;;;;;9.33;100.00;100052.47;5097535;28;20494;-64
2021/05/22 10:12:39;;;;;;;18.55;6.55;;;;;;;9.29;100.00;100056.00;5104299;28;20024;-64
2021/05/22 10:15:05;;;;;;;20.35;7.13;;;;;;;9.36;100.00;100052.47;5101907;28;20054;-64
2021/05/22 10:17:31;;;;;;;21.88;7.47;;;;;;;9.51;100.00;100055.91;5103791;28;20054;-64
2021/05/22 10:19:57;;;;;;;19.67;6.43;;;;;;;9.46;100.00;100069.13;5102969;28;20102;-64
2021/05/22 10:22:22;;;;;;;20.35;7.60;;;;;;;9.41;100.00;100066.50;5102579;28;20056;-64
2021/05/22 10:24:48;;;;;;;22.42;8.40;;;;;;;9.45;100.00;100064.75;5104273;28;20026;-64
2021/05/22 10:27:14;;;;;;;22.00;8.70;;;;;;;9.54;100.00;100071.75;5101117;28;20103;-64
2021/05/22 10:29:39;;;;;;;21.30;8.20;;;;;;;9.57;100.00;100069.97;5104845;28;20101;-69
2021/05/22 10:32:05;;;;;;;21.10;8.30;;;;;;;9.57;100.00;100077.03;5101752;28;20059;-71
2021/05/22 10:34:37;;;;;;;23.05;8.80;;;;;;;9.57;100.00;100088.44;5103399;28;20040;-66
2021/05/22 10:37:05;;;;;;;22.48;8.40;;;;;;;9.64;100.00;100084.03;5101855;28;20019;-65
2021/05/22 10:39:34;;;;;;;23.58;9.10;;;;;;;9.63;100.00;100099.88;5103967;28;20059;-67
2021/05/22 10:42:00;;;;;;;23.35;9.30;;;;;;;9.57;100.00;100092.84;5102505;28;20053;-70
2021/05/22 10:44:33;;;;;;;23.80;9.27;;;;;;;9.57;100.00;100108.69;5103135;28;20031;-71
2021/05/22 10:47:14;;;;;;;22.77;9.60;;;;;;;9.57;100.00;100101.63;5104061;28;20023;-72
2021/05/22 10:49:52;;;;;;;24.52;10.35;;;;;;;9.48;100.00;100128.06;5103770;28;20110;-73
2021/05/22 10:52:35;;;;;;;24.95;10.25;;;;;;;9.32;100.00;100135.13;5098559;28;20077;-71
2021/05/22 10:55:10;;;;;;;27.27;11.90;;;;;;;9.16;100.00;100139.53;5102738;28;20080;-68
2021/05/22 10:57:41;;;;;;;27.73;11.88;;;;;;;9.06;100.00;100151.84;5104032;28;20043;-74
2021/05/22 11:00:16;;;;;;;28.52;14.40;;;;;;;9.05;100.00;100151.84;5101597;28;20081;-74
2021/05/22 11:02:48;;;;;;;30.58;14.45;;;;;;;9.06;100.00;100158.88;5100220;28;20082;-73
2021/05/22 11:05:22;;;;;;;30.27;15.55;;;;;;;9.19;100.00;100149.22;5096249;28;20070;-65
2021/05/22 11:07:49;;;;;;;29.73;15.50;;;;;;;9.37;100.00;100154.44;5098791;28;20035;-64
2021/05/22 11:10:33;;;;;;;30.13;15.65;;;;;;;9.53;100.00;100167.63;5104342;28;20046;-65
2021/05/22 11:12:59;;;;;;;26.55;13.85;;;;;;;9.54;100.00;100169.38;5102961;28;20028;-64
2021/05/22 11:15:47;;;;;;;30.95;15.50;;;;;;;9.63;100.00;100177.28;5102898;28;20024;-65
2021/05/22 11:18:14;;;;;;;25.30;12.18;;;;;;;9.53;100.00;100181.69;5097132;28;20127;-65
2021/05/22 11:20:42;;;;;;;26.38;13.25;;;;;;;9.57;100.00;100187.84;5096621;28;20024;-64
2021/05/22 11:23:08;;;;;;;26.63;13.25;;;;;;;9.58;100.00;100187.84;5103912;28;20023;-65
2021/05/22 11:25:46;;;;;;;28.75;14.88;;;;;;;9.79;100.00;100191.31;5101590;28;20019;-65
2021/05/22 11:28:22;;;;;;;28.15;14.50;;;;;;;9.71;100.00;100199.25;5104090;28;20028;-65
2021/05/22 11:30:49;;;;;;;25.27;13.13;;;;;;;9.55;100.00;100201.03;5098484;28;20443;-65